Time;durP1;ratioP1;P1;durP2;ratioP2;P2;SDS_P1;SDS_P2;PMS_P1;PMS_P2;Temp;Humidity;BMP_temperature;BMP_pressure;BME280_temperature;BME280_humidity;BME280_pressure;Samples;Min_cycle;Max_cycle;Signal;HPM_P1;HPM_P2
2022/05/21 00:01:10;;;;;;;18.17;7.43;;;10.80;99.90;;;;;;5034490;28;20053;-88
2022/05/21 00:03:35;;;;;;;15.55;6.63;;;10.80;99.90;;;;;;5034770;28;20125;-87
2022/05/21 00:06:01;;;;;;;17.38;7.00;;;10.70;99.90;;;;;;5017072;28;20053;-87
2022/05/21 00:08:26;;;;;;;13.10;6.88;;;10.80;99.90;;;;;;5034711;28;20535;-87
2022/05/21 00:10:52;;;;;;;18.48;7.07;;;10.70;99.90;;;;;;5034531;28;20080;-87
2022/05/21 00:13:18;;;;;;;15.40;7.05;;;10.70;99.90;;;;;;5034595;28;20045;-87
2022/05/21 00:15:45;;;;;;;17.55;7.65;;;10.70;99.90;;;;;;5016578;28;20111;-87
2022/05/21 00:18:10;;;;;;;19.70;7.55;;;10.70;99.90;;;;;;5016923;28;20184;-88
2022/05/21 00:20:48;;;;;;;16.92;7.45;;;10.80;99.90;;;;;;5016509;28;20053;-87
2022/05/21 00:23:15;;;;;;;23.73;8.55;;;10.70;99.90;;;;;;5016889;28;20049;-87
2022/05/21 00:25:42;;;;;;;23.20;9.48;;;10.80;99.90;;;;;;5016863;28;20048;-87
2022/05/21 00:28:08;;;;;;;19.70;9.38;;;10.80;99.90;;;;;;5034283;28;20045;-87
2022/05/21 00:30:35;;;;;;;21.38;9.32;;;10.80;99.90;;;;;;5016692;28;20128;-87
2022/05/21 00:33:01;;;;;;;22.50;9.48;;;10.80;99.90;;;;;;5016400;28;20064;-88
2022/05/21 00:35:27;;;;;;;22.00;10.82;;;10.90;99.90;;;;;;5034151;28;20044;-88
2022/05/21 00:37:53;;;;;;;23.70;11.48;;;10.90;99.90;;;;;;5034051;28;20041;-87
2022/05/21 00:40:18;;;;;;;26.75;10.55;;;11.00;99.90;;;;;;5034024;28;20041;-88
2022/05/21 00:42:44;;;;;;;25.30;12.65;;;11.00;99.90;;;;;;5016548;28;20053;-88
2022/05/21 00:45:11;;;;;;;40.75;14.27;;;11.10;99.90;;;;;;5033767;28;20378;-87
2022/05/21 00:47:37;;;;;;;28.65;12.77;;;11.10;99.90;;;;;;5033862;28;20041;-88
2022/05/21 00:50:08;;;;;;;39.40;15.93;;;11.20;99.90;;;;;;5033987;28;20037;-88
2022/05/21 00:52:35;;;;;;;37.15;15.60;;;11.20;99.90;;;;;;5016476;28;20052;-88
2022/05/21 00:55:08;;;;;;;43.90;17.05;;;11.20;99.90;;;;;;5033862;28;20041;-88
2022/05/21 00:57:47;;;;;;;39.38;17.38;;;11.30;99.90;;;;;;5016442;28;20057;-88
2022/05/21 01:00:22;;;;;;;36.03;19.17;;;11.30;99.90;;;;;;5033681;28;20052;-88
2022/05/21 01:02:52;;;;;;;38.17;18.05;;;11.30;99.90;;;;;;5033679;28;20443;-88
2022/05/21 01:05:21;;;;;;;38.20;19.35;;;11.40;99.90;;;;;;5016344;28;20041;-88
2022/05/21 01:07:49;;;;;;;44.65;20.23;;;11.40;99.90;;;;;;5033689;28;20054;-88
2022/05/21 01:10:18;;;;;;;44.22;20.45;;;11.50;99.90;;;;;;5033509;28;20180;-88
2022/05/21 01:12:48;;;;;;;55.13;24.25;;;11.50;99.90;;;;;;5033081;28;20068;-88
2022/05/21 01:15:21;;;;;;;62.42;23.95;;;11.50;99.90;;;;;;5033732;28;20045;-88
2022/05/21 01:17:47;;;;;;;54.35;24.10;;;11.60;99.90;;;;;;5015974;28;20175;-88
2022/05/21 01:20:20;;;;;;;56.58;23.70;;;11.60;99.90;;;;;;5015613;28;20124;-87
2022/05/21 01:22:48;;;;;;;47.80;22.90;;;11.70;99.90;;;;;;5016039;28;20045;-87
2022/05/21 01:25:17;;;;;;;54.22;25.58;;;11.70;99.90;;;;;;5033549;28;20091;-88
2022/05/21 01:27:44;;;;;;;60.22;27.30;;;11.70;99.90;;;;;;5033515;28;20041;-87
2022/05/21 01:30:15;;;;;;;64.95;28.92;;;11.80;99.90;;;;;;5033525;28;20081;-87
2022/05/21 01:32:48;;;;;;;59.47;27.10;;;11.90;99.90;;;;;;5033483;28;20052;-87
2022/05/21 01:35:15;;;;;;;70.13;28.02;;;11.90;99.90;;;;;;5033713;28;20092;-87
2022/05/21 01:37:41;;;;;;;66.57;29.45;;;12.00;99.90;;;;;;5033504;28;20041;-87
2022/05/21 01:40:09;;;;;;;72.90;30.35;;;12.00;99.90;;;;;;5033450;28;20049;-87
2022/05/21 01:42:35;;;;;;;73.70;30.95;;;12.00;99.90;;;;;;5033305;28;20052;-87
2022/05/21 01:45:01;;;;;;;67.13;31.02;;;12.10;99.90;;;;;;5033335;28;20045;-88
2022/05/21 01:47:29;;;;;;;68.68;32.10;;;12.10;99.90;;;;;;5015830;28;20049;-87
2022/05/21 01:49:55;;;;;;;80.40;32.03;;;12.20;99.90;;;;;;5015662;28;20435;-86
2022/05/21 01:52:21;;;;;;;75.13;31.38;;;12.20;99.90;;;;;;5015763;28;20504;-87
2022/05/21 01:54:46;;;;;;;82.32;32.50;;;12.30;99.90;;;;;;5033330;28;20087;-87
2022/05/21 01:57:12;;;;;;;74.93;31.63;;;12.30;99.90;;;;;;5033185;28;20489;-87
2022/05/21 01:59:39;;;;;;;90.03;34.38;;;12.30;99.90;;;;;;5033264;28;20080;-87
2022/05/21 02:02:06;;;;;;;79.30;33.40;;;12.30;99.90;;;;;;5015233;28;20129;-87
2022/05/21 02:04:31;;;;;;;86.70;32.35;;;12.40;99.90;;;;;;5015558;28;20102;-87
2022/05/21 02:06:57;;;;;;;77.82;32.78;;;12.40;99.90;;;;;;5033188;28;20037;-87
2022/05/21 02:09:23;;;;;;;70.43;30.63;;;12.40;99.90;;;;;;5033091;28;20048;-87
2022/05/21 02:11:48;;;;;;;66.63;28.75;;;12.50;99.90;;;;;;5033307;28;20183;-87
2022/05/21 02:14:14;;;;;;;67.85;30.17;;;12.50;99.90;;;;;;5033091;28;20030;-87
2022/05/21 02:16:40;;;;;;;62.15;28.60;;;12.50;99.90;;;;;;5032739;28;20123;-86
2022/05/21 02:19:07;;;;;;;64.10;26.73;;;12.50;99.90;;;;;;5032930;28;20397;-87
2022/05/21 02:21:35;;;;;;;71.95;28.75;;;12.60;99.90;;;;;;5032844;28;20077;-87
2022/05/21 02:24:01;;;;;;;71.97;29.15;;;12.60;99.90;;;;;;5034419;28;20501;-87
2022/05/21 02:26:26;;;;;;;72.00;26.88;;;12.60;99.90;;;;;;5036772;28;20088;-84
2022/05/21 02:28:52;;;;;;;70.38;26.13;;;12.60;99.90;;;;;;5036493;28;20038;-88
2022/05/21 02:31:18;;;;;;;66.63;25.50;;;12.60;99.90;;;;;;5036519;28;20128;-87
2022/05/21 02:33:44;;;;;;;55.90;23.10;;;12.60;99.90;;;;;;5036508;28;20042;-88
2022/05/21 02:36:10;;;;;;;66.20;23.80;;;12.70;99.90;;;;;;5036465;28;20042;-88
2022/05/21 02:41:20;;;;;;;62.10;19.50;;;12.70;99.90;;;;;;5018232;28;20071;-87
2022/05/21 02:43:46;;;;;;;53.90;17.63;;;12.70;99.90;;;;;;5036330;28;20045;-88
2022/05/21 02:46:13;;;;;;;46.53;16.02;;;12.80;99.90;;;;;;5036027;28;20389;-88
2022/05/21 02:48:40;;;;;;;47.42;15.00;;;12.80;99.90;;;;;;5036069;28;20046;-87
2022/05/21 02:51:07;;;;;;;45.75;12.88;;;12.80;99.90;;;;;;5036154;28;20121;-87
2022/05/21 02:53:33;;;;;;;35.03;10.07;;;12.90;99.90;;;;;;5036142;28;20053;-88
2022/05/21 02:56:07;;;;;;;40.42;10.50;;;12.80;99.90;;;;;;5018366;28;20045;-87
2022/05/21 02:58:32;;;;;;;36.47;10.73;;;12.90;99.90;;;;;;5036030;28;20050;-88
2022/05/21 03:00:58;;;;;;;31.38;8.82;;;12.90;99.90;;;;;;5035912;28;20103;-87
2022/05/21 03:03:24;;;;;;;37.03;10.45;;;12.90;99.90;;;;;;5018315;28;20052;-87
2022/05/21 03:05:50;;;;;;;36.90;10.68;;;12.90;99.90;;;;;;5035914;28;20390;-86
2022/05/21 03:11:01;;;;;;;39.85;10.00;;;13.00;99.90;;;;;;5035813;28;20053;-86
2022/05/21 03:13:27;;;;;;;48.05;10.82;;;13.00;99.90;;;;;;5017896;28;20049;-86
2022/05/21 03:15:52;;;;;;;48.47;11.07;;;13.00;99.90;;;;;;5017757;28;20052;-86
2022/05/21 03:18:20;;;;;;;47.90;11.70;;;13.00;99.90;;;;;;5035714;28;20130;-87
2022/05/21 03:20:45;;;;;;;36.53;11.20;;;13.10;99.90;;;;;;5035581;28;20049;-88
2022/05/21 03:23:11;;;;;;;41.97;11.18;;;13.10;99.90;;;;;;5035374;28;20049;-87
2022/05/21 03:25:38;;;;;;;39.75;12.02;;;13.10;99.90;;;;;;5035412;28;20069;-87
2022/05/21 03:28:05;;;;;;;47.88;12.10;;;13.10;99.90;;;;;;5035212;28;20492;-87
2022/05/21 03:30:32;;;;;;;44.17;11.82;;;13.10;99.90;;;;;;5035267;28;20045;-87
2022/05/21 03:32:58;;;;;;;54.53;12.73;;;13.10;99.90;;;;;;5034743;28;20149;-87
2022/05/21 03:35:25;;;;;;;30.95;10.02;;;13.10;99.90;;;;;;5034419;28;20057;-87
2022/05/21 03:37:52;;;;;;;40.85;10.15;;;13.10;99.90;;;;;;5034240;28;20370;-87
2022/05/21 03:40:21;;;;;;;35.28;9.35;;;13.10;99.90;;;;;;5035159;28;20077;-87
2022/05/21 03:42:47;;;;;;;35.28;8.10;;;13.10;99.90;;;;;;5035013;28;20042;-86
2022/05/21 03:45:14;;;;;;;38.13;7.10;;;13.10;99.90;;;;;;5017371;28;20048;-86
2022/05/21 03:47:41;;;;;;;30.27;6.90;;;13.20;99.90;;;;;;5035030;28;20091;-86
2022/05/21 03:50:09;;;;;;;33.30;7.32;;;13.10;99.90;;;;;;5034952;28;20382;-87
2022/05/21 03:52:34;;;;;;;30.70;6.38;;;13.10;99.90;;;;;;5017095;28;20051;-87
2022/05/21 03:55:01;;;;;;;23.63;6.05;;;13.10;99.90;;;;;;5034652;28;20124;-87
2022/05/21 03:57:26;;;;;;;31.42;6.00;;;13.10;99.90;;;;;;5034876;28;20065;-87
2022/05/21 03:59:52;;;;;;;27.85;5.90;;;13.10;99.90;;;;;;5034612;28;20073;-88
2022/05/21 04:02:17;;;;;;;27.52;5.00;;;13.10;99.90;;;;;;5034586;28;20042;-87
2022/05/21 04:04:43;;;;;;;27.80;5.22;;;13.10;99.90;;;;;;5034419;28;20054;-87
2022/05/21 04:07:09;;;;;;;24.35;4.65;;;13.10;99.90;;;;;;5034421;28;20041;-87
2022/05/21 04:09:35;;;;;;;19.40;4.25;;;13.10;99.90;;;;;;5016632;28;20244;-88
2022/05/21 04:12:00;;;;;;;19.60;4.78;;;13.10;99.90;;;;;;5034406;28;20150;-90
2022/05/21 04:14:29;;;;;;;24.55;6.80;;;13.10;99.90;;;;;;5034533;28;20049;-89
2022/05/21 04:16:57;;;;;;;25.50;5.57;;;13.10;99.90;;;;;;5016361;28;20129;-89
2022/05/21 04:19:23;;;;;;;26.75;5.20;;;13.10;99.90;;;;;;5034387;28;20053;-88
2022/05/21 04:21:49;;;;;;;24.00;4.70;;;13.10;99.90;;;;;;5034305;28;20049;-89
2022/05/21 04:24:15;;;;;;;19.15;4.93;;;13.20;99.90;;;;;;5034570;28;20108;-89
2022/05/21 04:26:42;;;;;;;26.52;6.25;;;13.30;99.90;;;;;;5034636;28;20525;-87
2022/05/21 04:29:08;;;;;;;27.77;5.93;;;13.40;99.90;;;;;;5034100;28;20056;-87
2022/05/21 04:31:34;;;;;;;24.83;6.18;;;13.40;99.90;;;;;;5034134;28;20068;-87
2022/05/21 04:33:59;;;;;;;26.83;6.38;;;13.40;99.90;;;;;;5034136;28;20124;-87
2022/05/21 04:36:25;;;;;;;22.73;5.80;;;13.40;99.90;;;;;;5034176;28;20088;-86
2022/05/21 04:38:53;;;;;;;25.15;6.13;;;13.50;99.90;;;;;;5034551;28;20053;-87
2022/05/21 04:41:20;;;;;;;25.48;6.38;;;13.50;99.90;;;;;;5034042;28;20084;-87
2022/05/21 04:43:46;;;;;;;19.50;4.95;;;13.50;99.90;;;;;;5034043;28;20046;-88
2022/05/21 04:46:15;;;;;;;20.65;5.13;;;13.50;99.90;;;;;;5033678;28;20397;-87
2022/05/21 04:48:42;;;;;;;22.02;5.93;;;13.50;99.90;;;;;;5015515;28;20509;-87
2022/05/21 04:51:08;;;;;;;20.88;5.28;;;13.50;99.90;;;;;;5016335;28;20054;-87
2022/05/21 04:53:34;;;;;;;33.42;5.82;;;13.50;99.90;;;;;;5033908;28;20076;-87
2022/05/21 04:56:01;;;;;;;28.85;6.20;;;13.50;99.90;;;;;;5033810;28;20061;-87
2022/05/21 04:58:27;;;;;;;19.67;6.90;;;13.50;99.90;;;;;;5016280;28;20056;-87
2022/05/21 05:00:53;;;;;;;23.00;7.63;;;13.50;99.90;;;;;;5033713;28;20091;-87
2022/05/21 05:03:19;;;;;;;26.05;7.80;;;13.50;99.90;;;;;;5033499;28;20041;-87
2022/05/21 05:05:46;;;;;;;31.20;7.70;;;13.50;99.90;;;;;;5033761;28;20179;-87
2022/05/21 05:08:13;;;;;;;26.00;7.78;;;13.40;99.90;;;;;;5033650;28;20050;-87
2022/05/21 05:10:39;;;;;;;29.50;8.10;;;13.40;99.90;;;;;;5033725;28;20072;-87
2022/05/21 05:13:06;;;;;;;25.98;6.68;;;13.40;99.90;;;;;;5033532;28;20123;-87
2022/05/21 05:15:32;;;;;;;22.95;5.88;;;13.40;99.90;;;;;;5033129;28;20516;-87
2022/05/21 05:18:07;;;;;;;24.83;6.53;;;13.40;99.90;;;;;;5015723;28;20060;-87
2022/05/21 05:20:33;;;;;;;26.77;7.45;;;13.40;99.90;;;;;;5015689;28;20041;-88
2022/05/21 05:22:59;;;;;;;24.60;7.95;;;13.40;99.90;;;;;;5033356;28;20063;-87
2022/05/21 05:25:25;;;;;;;24.90;8.30;;;13.40;99.90;;;;;;5033323;28;20396;-87
2022/05/21 05:27:51;;;;;;;28.48;9.32;;;13.40;99.90;;;;;;5033576;28;20048;-87
2022/05/21 05:30:19;;;;;;;31.23;7.85;;;13.40;99.90;;;;;;5033368;28;20416;-87
2022/05/21 05:32:45;;;;;;;22.63;8.10;;;13.30;99.90;;;;;;5015643;28;20168;-87
2022/05/21 05:35:12;;;;;;;31.27;7.63;;;13.40;99.90;;;;;;5033442;28;20038;-87
2022/05/21 05:37:38;;;;;;;32.53;8.57;;;13.40;99.90;;;;;;5015657;28;20083;-87
2022/05/21 05:40:06;;;;;;;29.13;6.68;;;13.40;99.90;;;;;;5015724;28;20141;-86
2022/05/21 05:42:35;;;;;;;33.00;7.68;;;13.40;99.90;;;;;;5033099;28;20046;-86
2022/05/21 05:45:01;;;;;;;30.83;7.05;;;13.50;99.90;;;;;;5033340;28;20111;-87
2022/05/21 05:47:27;;;;;;;34.85;7.15;;;13.40;99.90;;;;;;5033312;28;20390;-86
2022/05/21 05:49:53;;;;;;;32.22;8.65;;;13.40;99.90;;;;;;5033232;28;20113;-86
2022/05/21 05:52:19;;;;;;;30.85;8.00;;;13.50;99.90;;;;;;5033080;28;20460;-86
2022/05/21 05:54:46;;;;;;;31.70;8.30;;;13.50;99.90;;;;;;5015587;28;20401;-86
2022/05/21 05:57:12;;;;;;;27.60;7.70;;;13.50;99.90;;;;;;5032992;28;20072;-86
2022/05/21 05:59:49;;;;;;;32.85;9.32;;;13.50;99.90;;;;;;5018171;28;20087;-85
2022/05/21 06:05:19;;;;;;;32.97;7.72;;;13.50;99.90;;;;;;5037019;28;20065;-85
2022/05/21 06:07:51;;;;;;;25.95;7.53;;;13.70;99.90;;;;;;5036989;28;20077;-82
2022/05/21 06:10:22;;;;;;;22.95;6.55;;;13.80;99.90;;;;;;5019047;28;20046;-84
2022/05/21 06:12:48;;;;;;;30.88;7.20;;;13.80;99.90;;;;;;5019390;28;20053;-85
2022/05/21 06:15:15;;;;;;;30.35;7.28;;;13.70;99.90;;;;;;5037020;28;20112;-94
2022/05/21 06:17:42;;;;;;;27.08;6.85;;;13.80;99.90;;;;;;5019071;28;20448;-82
2022/05/21 06:20:11;;;;;;;30.13;6.93;;;13.80;99.90;;;;;;5038017;28;20045;-81
2022/05/21 06:22:37;;;;;;;33.90;8.63;;;13.90;99.90;;;;;;5038236;28;20045;-81
2022/05/21 06:25:03;;;;;;;26.20;6.78;;;13.90;99.90;;;;;;5038290;28;20045;-81
2022/05/21 06:27:29;;;;;;;32.75;7.25;;;13.90;99.90;;;;;;5038531;28;20044;-81
2022/05/21 06:29:56;;;;;;;29.30;6.40;;;14.00;99.90;;;;;;5038309;28;20041;-84
2022/05/21 06:32:21;;;;;;;31.13;7.28;;;14.00;99.90;;;;;;5038394;28;20056;-82
2022/05/21 06:34:47;;;;;;;31.80;6.57;;;14.10;99.90;;;;;;5038017;28;20408;-85
2022/05/21 06:37:13;;;;;;;27.80;6.20;;;14.20;99.90;;;;;;5038392;28;20049;-83
2022/05/21 06:39:40;;;;;;;28.50;7.10;;;14.20;99.90;;;;;;5056094;28;20400;-83
2022/05/21 06:42:07;;;;;;;24.55;6.68;;;14.20;99.90;;;;;;5038003;28;20535;-83
2022/05/21 06:44:33;;;;;;;21.95;7.15;;;14.20;99.90;;;;;;5037865;28;20124;-83
2022/05/21 06:46:58;;;;;;;29.38;7.07;;;14.20;99.90;;;;;;5056062;28;20124;-83
2022/05/21 06:49:26;;;;;;;31.77;6.28;;;14.30;99.90;;;;;;5055687;28;20076;-83
2022/05/21 06:51:57;;;;;;;37.17;7.38;;;14.50;99.90;;;;;;5037767;28;20079;-83
2022/05/21 06:54:23;;;;;;;31.98;6.85;;;14.60;99.90;;;;;;5037714;28;20056;-83
2022/05/21 06:56:50;;;;;;;31.27;6.55;;;14.80;99.90;;;;;;5055648;28;20052;-83
2022/05/21 06:59:16;;;;;;;29.35;6.10;;;14.80;99.90;;;;;;5037996;28;20049;-81
2022/05/21 07:01:42;;;;;;;25.05;6.50;;;14.90;99.90;;;;;;5037514;28;20079;-82
2022/05/21 07:04:09;;;;;;;29.60;6.30;;;14.90;99.90;;;;;;5037521;28;20072;-81
2022/05/21 07:09:21;;;;;;;29.58;5.43;;;15.10;99.90;;;;;;5037526;28;20102;-82
2022/05/21 07:11:51;;;;;;;30.38;6.57;;;15.20;99.90;;;;;;5036347;28;20052;-82
2022/05/21 07:14:17;;;;;;;33.75;6.32;;;15.30;99.90;;;;;;5054583;28;20055;-82
2022/05/21 07:16:43;;;;;;;26.40;5.82;;;15.40;99.90;;;;;;5054956;28;20048;-82
2022/05/21 07:19:09;;;;;;;30.58;6.22;;;15.40;99.90;;;;;;5055357;28;20041;-82
2022/05/21 07:21:35;;;;;;;30.60;6.05;;;15.40;99.90;;;;;;5055078;28;20424;-82
2022/05/21 07:24:01;;;;;;;27.52;6.18;;;15.40;99.90;;;;;;5037498;28;20095;-81
2022/05/21 07:26:27;;;;;;;24.85;6.55;;;15.30;99.90;;;;;;5037434;28;20037;-82
2022/05/21 07:28:53;;;;;;;28.90;6.50;;;15.30;99.90;;;;;;5054960;28;20049;-82
2022/05/21 07:31:18;;;;;;;28.10;6.55;;;15.40;99.90;;;;;;5037038;28;20103;-82
2022/05/21 07:33:44;;;;;;;28.58;5.97;;;15.50;99.90;;;;;;5037346;28;20055;-82
2022/05/21 07:36:10;;;;;;;21.83;5.57;;;15.50;99.90;;;;;;5055124;28;20076;-82
2022/05/21 07:38:36;;;;;;;19.10;5.57;;;15.40;99.90;;;;;;5047918;28;20079;-82
2022/05/21 07:41:02;;;;;;;24.05;4.75;;;15.30;99.90;;;;;;5041634;28;20125;-82
2022/05/21 07:43:30;;;;;;;25.50;5.47;;;15.40;99.90;;;;;;5021262;28;20056;-82
2022/05/21 07:46:00;;;;;;;26.88;6.60;;;15.30;99.90;;;;;;5054491;28;20477;-83
2022/05/21 07:48:27;;;;;;;27.67;5.57;;;15.20;99.90;;;;;;5054829;28;20075;-82
2022/05/21 07:50:57;;;;;;;22.10;5.55;;;15.10;99.90;;;;;;5054758;28;20041;-82
2022/05/21 07:53:32;;;;;;;26.50;6.38;;;15.20;99.90;;;;;;5041814;28;20052;-82
2022/05/21 07:55:57;;;;;;;25.38;6.30;;;15.20;99.90;;;;;;5043507;28;20040;-81
2022/05/21 07:58:26;;;;;;;27.23;6.85;;;15.30;99.90;;;;;;5037265;28;20033;-81
2022/05/21 08:00:53;;;;;;;26.58;7.75;;;15.40;99.90;;;;;;5016916;28;20477;-81
2022/05/21 08:03:19;;;;;;;22.48;5.50;;;15.60;99.90;;;;;;5034374;28;20045;-81
2022/05/21 08:05:45;;;;;;;30.80;7.18;;;15.50;99.90;;;;;;5034615;28;20040;-81
2022/05/21 08:08:12;;;;;;;35.85;7.15;;;15.30;99.90;;;;;;5016622;28;20057;-81
2022/05/21 08:10:40;;;;;;;27.90;6.18;;;15.10;99.90;;;;;;5016611;28;20049;-80
2022/05/21 08:13:06;;;;;;;27.33;6.15;;;15.20;99.90;;;;;;5017654;28;20505;-81
2022/05/21 08:15:33;;;;;;;34.55;5.65;;;15.10;99.90;;;;;;5035917;28;20057;-81
2022/05/21 08:18:00;;;;;;;28.50;6.20;;;14.90;99.90;;;;;;5036109;28;20052;-80
2022/05/21 08:20:28;;;;;;;23.88;5.28;;;15.00;99.90;;;;;;5054268;28;20040;-81
2022/05/21 08:28:22;;;;;;;27.80;5.88;;;15.20;99.90;;;;;;5035884;28;20524;-82
2022/05/21 08:30:48;;;;;;;32.60;6.18;;;15.40;99.90;;;;;;5053928;28;20076;-81
2022/05/21 08:33:16;;;;;;;24.48;5.82;;;15.60;99.90;;;;;;5053741;28;20049;-81
2022/05/21 08:35:42;;;;;;;33.58;5.85;;;15.80;99.90;;;;;;5053548;28;20570;-80
2022/05/21 08:38:10;;;;;;;29.63;6.15;;;16.00;99.90;;;;;;5053925;28;20064;-82
2022/05/21 08:40:42;;;;;;;22.60;4.32;;;16.00;99.90;;;;;;5053598;28;20510;-82
2022/05/21 08:43:18;;;;;;;37.03;6.22;;;16.20;99.90;;;;;;5035646;28;20056;-81
2022/05/21 08:46:17;;;;;;;33.58;5.60;;;16.20;99.90;;;;;;5051686;28;20037;-81
2022/05/21 08:48:52;;;;;;;32.17;6.45;;;16.40;99.90;;;;;;5008193;28;20103;-81
2022/05/21 08:51:21;;;;;;;27.70;5.80;;;16.40;99.90;;;;;;5053768;28;20119;-81
2022/05/21 08:53:50;;;;;;;28.95;5.03;;;16.40;99.90;;;;;;5035004;28;20096;-82
2022/05/21 08:56:16;;;;;;;30.45;6.80;;;16.40;99.90;;;;;;5035537;28;20053;-81
2022/05/21 08:58:52;;;;;;;26.05;6.03;;;16.60;99.90;;;;;;5034094;28;20132;-82
2022/05/21 09:01:21;;;;;;;33.17;6.88;;;16.80;99.90;;;;;;5015966;28;20050;-82
2022/05/21 09:03:50;;;;;;;19.48;4.97;;;16.80;99.90;;;;;;5033580;28;20050;-82
2022/05/21 09:06:18;;;;;;;18.80;4.68;;;16.90;99.90;;;;;;5033688;28;20045;-81
2022/05/21 09:09:11;;;;;;;14.82;4.53;;;16.80;99.90;;;;;;5033360;28;20049;-81
2022/05/21 09:11:55;;;;;;;26.65;5.80;;;16.90;99.90;;;;;;5015892;28;20057;-81
2022/05/21 09:14:36;;;;;;;23.05;5.10;;;16.90;99.90;;;;;;5024789;28;20495;-81
2022/05/21 09:17:28;;;;;;;31.05;6.28;;;17.00;99.90;;;;;;5035015;28;20067;-81
2022/05/21 09:20:01;;;;;;;28.35;5.90;;;16.80;99.90;;;;;;5052332;28;20132;-80
2022/05/21 09:22:27;;;;;;;;;;;16.90;99.90;;;;;;5035531;28;20059;-81
2022/05/21 09:24:54;;;;;;;22.10;5.38;;;17.00;99.90;;;;;;5052348;28;20023;-80
2022/05/21 09:27:27;;;;;;;20.98;5.20;;;16.70;99.90;;;;;;5035066;28;20051;-82
2022/05/21 09:30:11;;;;;;;;;;;16.70;99.90;;;;;;5053297;28;20424;-81
2022/05/21 09:32:38;;;;;;;25.30;5.32;;;16.70;99.90;;;;;;5035119;28;19943;-81
2022/05/21 09:35:16;;;;;;;34.20;5.88;;;16.80;99.90;;;;;;5038629;28;20037;-81
2022/05/21 09:37:44;;;;;;;26.85;4.93;;;16.90;99.90;;;;;;5057376;28;20045;-81
2022/05/21 09:40:29;;;;;;;25.35;5.07;;;16.90;99.90;;;;;;5056852;28;20120;-81
2022/05/21 09:45:41;;;;;;;19.42;5.32;;;16.90;99.90;;;;;;5056895;28;20127;-81
2022/05/21 09:48:07;;;;;;;22.25;6.20;;;16.90;99.90;;;;;;5038913;28;20049;-81
2022/05/21 09:50:56;;;;;;;19.83;5.47;;;16.80;99.90;;;;;;5056830;28;20041;-81
2022/05/21 09:53:40;;;;;;;27.30;5.05;;;16.80;99.90;;;;;;5038467;28;20052;-82
2022/05/21 09:56:08;;;;;;;22.90;5.50;;;16.50;99.90;;;;;;5056020;28;20484;-81
2022/05/21 09:58:44;;;;;;;32.15;6.53;;;16.40;99.90;;;;;;5038819;28;20493;-81
2022/05/21 10:01:14;;;;;;;32.10;6.18;;;16.30;99.90;;;;;;5038631;28;20041;-81
2022/05/21 10:03:49;;;;;;;27.83;5.55;;;16.20;99.90;;;;;;5056628;28;20136;-81
2022/05/21 10:06:24;;;;;;;30.55;5.72;;;16.20;99.90;;;;;;5056752;28;20128;-81
2022/05/21 10:11:56;;;;;;;26.35;6.50;;;16.20;99.90;;;;;;5056580;28;20056;-81
2022/05/21 10:14:35;;;;;;;25.58;6.60;;;16.20;99.90;;;;;;5038074;28;20045;-80
2022/05/21 10:17:06;;;;;;;23.00;5.97;;;16.20;99.90;;;;;;5031526;28;20080;-81
2022/05/21 10:19:56;;;;;;;27.02;5.57;;;16.30;99.90;;;;;;5056353;28;20048;-80
2022/05/21 10:22:38;;;;;;;28.27;5.38;;;16.40;99.90;;;;;;5056397;28;20053;-80
2022/05/21 10:25:19;;;;;;;28.05;5.65;;;16.60;99.90;;;;;;5037905;28;20530;-81
2022/05/21 10:27:56;;;;;;;27.83;5.90;;;16.50;99.90;;;;;;5056123;28;20052;-79
2022/05/21 10:30:25;;;;;;;28.45;6.78;;;16.50;99.90;;;;;;5038250;28;20049;-80
2022/05/21 10:33:07;;;;;;;27.75;5.95;;;16.70;99.90;;;;;;5038124;28;20103;-81
2022/05/21 10:35:36;;;;;;;27.42;6.28;;;16.70;99.90;;;;;;5056342;28;20041;-81
2022/05/21 10:38:13;;;;;;;25.17;5.75;;;16.80;99.90;;;;;;5056216;28;20045;-81
2022/05/21 10:40:38;;;;;;;26.65;5.82;;;17.00;99.90;;;;;;5037940;28;20056;-81
2022/05/21 10:43:29;;;;;;;30.52;5.00;;;17.30;99.90;;;;;;5037883;28;20053;-81
2022/05/21 10:46:11;;;;;;;28.15;5.22;;;17.30;99.90;;;;;;5036263;28;20041;-81
2022/05/21 10:49:07;;;;;;;30.07;7.00;;;17.30;99.90;;;;;;5056031;28;20052;-81
2022/05/21 10:51:35;;;;;;;30.85;5.95;;;17.30;99.90;;;;;;5037983;28;20045;-80
2022/05/21 10:54:15;;;;;;;30.33;5.65;;;17.20;99.90;;;;;;5037215;28;20403;-81
2022/05/21 10:57:19;;;;;;;24.00;5.07;;;17.10;99.90;;;;;;5038022;28;20084;-80
2022/05/21 11:00:39;;;;;;;24.85;5.18;;;16.90;99.90;;;;;;5037766;28;20048;-81
2022/05/21 11:03:26;;;;;;;27.90;6.07;;;16.80;99.90;;;;;;4958497;28;20050;-81
2022/05/21 11:06:13;;;;;;;24.75;5.50;;;17.00;99.90;;;;;;5055713;28;20080;-82
2022/05/21 11:09:02;;;;;;;34.90;6.30;;;17.20;99.90;;;;;;5037835;28;20072;-81
2022/05/21 11:11:57;;;;;;;27.80;5.78;;;17.30;99.90;;;;;;5055442;28;20067;-81
2022/05/21 11:14:39;;;;;;;22.98;5.43;;;17.10;99.90;;;;;;5047793;28;20065;-82
2022/05/21 11:17:19;;;;;;;40.05;6.93;;;17.30;99.90;;;;;;5055148;28;20057;-82
2022/05/21 11:20:04;;;;;;;20.83;5.07;;;17.20;99.90;;;;;;5054374;28;20045;-81
2022/05/21 11:22:38;;;;;;;25.10;5.82;;;17.20;99.90;;;;;;5053897;28;20400;-80
2022/05/21 11:25:15;;;;;;;24.15;5.97;;;17.50;99.90;;;;;;5054823;28;20044;-80
2022/05/21 11:28:15;;;;;;;28.75;7.15;;;17.70;99.90;;;;;;5037452;28;20481;-81
2022/05/21 11:30:41;;;;;;;25.25;6.82;;;17.80;99.90;;;;;;5037109;28;20049;-81
2022/05/21 11:38:52;;;;;;;26.48;4.85;;;17.80;99.90;;;;;;5054778;28;20067;-82
2022/05/21 11:42:02;;;;;;;24.70;6.38;;;17.80;99.90;;;;;;5036810;28;20053;-81
2022/05/21 11:47:23;;;;;;;31.33;5.65;;;17.80;99.90;;;;;;5036502;28;20059;-82
2022/05/21 11:49:59;;;;;;;32.28;5.13;;;17.60;99.90;;;;;;5035933;28;20048;-82
2022/05/21 11:52:34;;;;;;;19.67;4.68;;;17.70;99.90;;;;;;5036636;28;20049;-81
2022/05/21 11:55:11;;;;;;;19.50;4.53;;;17.60;99.90;;;;;;5036735;28;20045;-81
2022/05/21 11:57:41;;;;;;;28.23;6.00;;;17.20;99.90;;;;;;5053883;28;20488;-81
2022/05/21 12:00:24;;;;;;;18.23;5.68;;;17.40;99.90;;;;;;5054814;28;20041;-81
2022/05/21 12:02:58;;;;;;;29.00;6.03;;;17.60;99.90;;;;;;5054434;28;20049;-82
2022/05/21 12:05:35;;;;;;;30.30;5.97;;;17.60;99.90;;;;;;5054172;28;20476;-82
2022/05/21 12:08:21;;;;;;;36.63;5.88;;;17.60;99.90;;;;;;5036296;28;20083;-82
2022/05/21 12:11:02;;;;;;;33.25;6.05;;;17.40;99.90;;;;;;5025767;28;20493;-81
2022/05/21 12:13:33;;;;;;;28.75;5.78;;;17.40;99.90;;;;;;5036283;28;20049;-82
2022/05/21 12:16:19;;;;;;;34.00;7.35;;;17.50;99.90;;;;;;5036291;28;20122;-81
2022/05/21 12:18:57;;;;;;;28.98;5.60;;;17.40;99.90;;;;;;5035728;28;20163;-81
2022/05/21 12:21:29;;;;;;;28.52;7.30;;;17.20;99.90;;;;;;5053993;28;20048;-81
2022/05/21 12:23:58;;;;;;;23.67;5.20;;;17.10;99.90;;;;;;5036321;28;20057;-82
2022/05/21 12:26:40;;;;;;;24.33;5.10;;;17.10;99.90;;;;;;5036223;28;20103;-81
2022/05/21 12:29:14;;;;;;;30.60;5.75;;;17.00;99.90;;;;;;5036202;28;20501;-81
2022/05/21 12:31:47;;;;;;;26.83;5.60;;;17.10;99.90;;;;;;5036251;28;20045;-83
2022/05/21 12:34:22;;;;;;;21.35;5.57;;;17.10;99.90;;;;;;5036130;28;20041;-81
2022/05/21 12:36:50;;;;;;;19.90;4.82;;;17.00;99.90;;;;;;5036076;28;20051;-81
2022/05/21 12:39:22;;;;;;;28.52;5.80;;;17.10;99.90;;;;;;5053822;28;20041;-82
2022/05/21 12:41:53;;;;;;;20.53;5.43;;;17.10;99.90;;;;;;5053663;28;20053;-81
2022/05/21 12:44:44;;;;;;;26.17;5.32;;;17.00;99.90;;;;;;5053820;28;20064;-81
2022/05/21 12:47:12;;;;;;;26.67;6.07;;;17.00;99.90;;;;;;5053611;28;20049;-81
2022/05/21 12:49:50;;;;;;;29.75;6.30;;;16.80;99.90;;;;;;5053565;28;20037;-81
2022/05/21 12:52:23;;;;;;;22.00;5.57;;;16.90;99.90;;;;;;5053656;28;20132;-81
2022/05/21 12:54:49;;;;;;;24.23;6.15;;;16.90;99.90;;;;;;5053571;28;20053;-82
2022/05/21 12:57:17;;;;;;;28.58;5.97;;;17.00;99.90;;;;;;5053281;28;20049;-81
2022/05/21 12:59:42;;;;;;;19.52;5.95;;;17.20;99.90;;;;;;5053392;28;20048;-81
2022/05/21 13:02:11;;;;;;;27.98;6.55;;;17.20;99.90;;;;;;5035501;28;20506;-81
2022/05/21 13:04:42;;;;;;;21.85;5.50;;;17.50;99.90;;;;;;5053209;28;20055;-82
2022/05/21 13:07:11;;;;;;;20.48;5.45;;;17.30;99.90;;;;;;5053268;28;20045;-82
2022/05/21 13:09:38;;;;;;;30.27;4.97;;;17.20;99.90;;;;;;5034614;28;20040;-81
2022/05/21 13:12:13;;;;;;;24.98;6.07;;;17.10;99.90;;;;;;5053401;28;20044;-82
2022/05/21 13:14:39;;;;;;;18.38;5.40;;;17.40;99.90;;;;;;5053055;28;20112;-82
2022/05/21 13:17:13;;;;;;;27.40;6.68;;;17.60;99.90;;;;;;5034999;28;20411;-81
2022/05/21 13:19:41;;;;;;;19.35;5.43;;;17.60;99.90;;;;;;5053286;28;20045;-81
2022/05/21 13:22:20;;;;;;;26.85;5.97;;;17.50;99.90;;;;;;5053161;28;20041;-81